sensor_id;sensor_type;location;lat;lon;timestamp;P1;durP1;ratioP1;P2;durP2;ratioP2
11691;SDS011;33659;42.672;23.354;2022-12-18T00:01:49;5.50;;;4.40;;
11691;SDS011;33659;42.672;23.354;2022-12-18T00:04:18;4.63;;;4.13;;
11691;SDS011;33659;42.672;23.354;2022-12-18T00:06:48;5.27;;;4.20;;
11691;SDS011;33659;42.672;23.354;2022-12-18T00:09:15;6.00;;;4.20;;
11691;SDS011;33659;42.672;23.354;2022-12-18T00:11:42;4.90;;;4.37;;
11691;SDS011;33659;42.672;23.354;2022-12-18T00:14:09;7.53;;;4.43;;
11691;SDS011;33659;42.672;23.354;2022-12-18T00:16:38;4.60;;;3.90;;
11691;SDS011;33659;42.672;23.354;2022-12-18T00:19:05;5.37;;;4.37;;
11691;SDS011;33659;42.672;23.354;2022-12-18T00:21:33;5.70;;;4.40;;
11691;SDS011;33659;42.672;23.354;2022-12-18T00:24:01;5.97;;;4.63;;
11691;SDS011;33659;42.672;23.354;2022-12-18T00:26:29;5.63;;;4.07;;
11691;SDS011;33659;42.672;23.354;2022-12-18T00:28:57;5.40;;;4.87;;
11691;SDS011;33659;42.672;23.354;2022-12-18T00:31:25;5.87;;;4.60;;
11691;SDS011;33659;42.672;23.354;2022-12-18T00:33:53;5.43;;;4.17;;
11691;SDS011;33659;42.672;23.354;2022-12-18T00:36:21;5.47;;;4.67;;
11691;SDS011;33659;42.672;23.354;2022-12-18T00:38:49;6.43;;;4.97;;
11691;SDS011;33659;42.672;23.354;2022-12-18T00:41:17;4.80;;;4.33;;
11691;SDS011;33659;42.672;23.354;2022-12-18T00:44:11;9.63;;;4.07;;
11691;SDS011;33659;42.672;23.354;2022-12-18T00:46:38;5.20;;;4.70;;
11691;SDS011;33659;42.672;23.354;2022-12-18T00:49:05;5.07;;;4.37;;
11691;SDS011;33659;42.672;23.354;2022-12-18T00:51:32;6.27;;;4.60;;
11691;SDS011;33659;42.672;23.354;2022-12-18T00:53:58;4.87;;;4.07;;
11691;SDS011;33659;42.672;23.354;2022-12-18T00:56:26;6.13;;;3.70;;
11691;SDS011;33659;42.672;23.354;2022-12-18T00:58:53;6.10;;;4.03;;
11691;SDS011;33659;42.672;23.354;2022-12-18T01:01:20;5.63;;;4.53;;
11691;SDS011;33659;42.672;23.354;2022-12-18T01:03:47;5.43;;;3.73;;
11691;SDS011;33659;42.672;23.354;2022-12-18T01:06:14;7.83;;;4.13;;
11691;SDS011;33659;42.672;23.354;2022-12-18T01:08:41;6.37;;;4.00;;
11691;SDS011;33659;42.672;23.354;2022-12-18T01:11:09;3.83;;;3.47;;
11691;SDS011;33659;42.672;23.354;2022-12-18T01:13:39;5.23;;;4.30;;
11691;SDS011;33659;42.672;23.354;2022-12-18T01:16:06;4.50;;;3.70;;
11691;SDS011;33659;42.672;23.354;2022-12-18T01:18:34;6.03;;;4.13;;
11691;SDS011;33659;42.672;23.354;2022-12-18T01:21:02;5.53;;;4.70;;
11691;SDS011;33659;42.672;23.354;2022-12-18T01:23:32;6.70;;;4.90;;
11691;SDS011;33659;42.672;23.354;2022-12-18T01:26:03;10.30;;;4.83;;
11691;SDS011;33659;42.672;23.354;2022-12-18T01:28:30;6.23;;;5.03;;
11691;SDS011;33659;42.672;23.354;2022-12-18T01:30:58;7.63;;;4.63;;
11691;SDS011;33659;42.672;23.354;2022-12-18T01:33:35;8.37;;;5.33;;
11691;SDS011;33659;42.672;23.354;2022-12-18T01:36:02;7.23;;;5.53;;
11691;SDS011;33659;42.672;23.354;2022-12-18T01:38:29;8.37;;;5.07;;
11691;SDS011;33659;42.672;23.354;2022-12-18T01:40:56;6.40;;;5.33;;
11691;SDS011;33659;42.672;23.354;2022-12-18T01:46:10;6.60;;;4.83;;
11691;SDS011;33659;42.672;23.354;2022-12-18T01:48:37;7.17;;;5.17;;
11691;SDS011;33659;42.672;23.354;2022-12-18T01:51:05;7.17;;;5.03;;
11691;SDS011;33659;42.672;23.354;2022-12-18T01:53:33;6.60;;;5.20;;
11691;SDS011;33659;42.672;23.354;2022-12-18T01:56:01;9.00;;;5.77;;
11691;SDS011;33659;42.672;23.354;2022-12-18T01:58:29;9.67;;;5.67;;
11691;SDS011;33659;42.672;23.354;2022-12-18T02:01:01;7.93;;;5.10;;
11691;SDS011;33659;42.672;23.354;2022-12-18T02:03:29;7.87;;;5.23;;
11691;SDS011;33659;42.672;23.354;2022-12-18T02:05:57;6.40;;;4.73;;
11691;SDS011;33659;42.672;23.354;2022-12-18T02:08:31;7.97;;;4.80;;
11691;SDS011;33659;42.672;23.354;2022-12-18T02:11:04;6.87;;;5.10;;
11691;SDS011;33659;42.672;23.354;2022-12-18T02:13:38;9.10;;;5.67;;
11691;SDS011;33659;42.672;23.354;2022-12-18T02:16:13;7.07;;;4.70;;
11691;SDS011;33659;42.672;23.354;2022-12-18T02:18:48;4.90;;;4.43;;
11691;SDS011;33659;42.672;23.354;2022-12-18T02:21:22;8.97;;;4.77;;
11691;SDS011;33659;42.672;23.354;2022-12-18T02:24:00;5.40;;;4.17;;
11691;SDS011;33659;42.672;23.354;2022-12-18T02:26:43;8.03;;;4.67;;
11691;SDS011;33659;42.672;23.354;2022-12-18T02:29:15;6.03;;;4.37;;
11691;SDS011;33659;42.672;23.354;2022-12-18T02:31:45;6.43;;;5.00;;
11691;SDS011;33659;42.672;23.354;2022-12-18T02:34:16;6.00;;;4.57;;
11691;SDS011;33659;42.672;23.354;2022-12-18T02:36:44;6.53;;;4.23;;
11691;SDS011;33659;42.672;23.354;2022-12-18T02:39:12;5.60;;;5.00;;
11691;SDS011;33659;42.672;23.354;2022-12-18T02:41:43;8.03;;;4.90;;
11691;SDS011;33659;42.672;23.354;2022-12-18T02:44:10;6.13;;;4.53;;
11691;SDS011;33659;42.672;23.354;2022-12-18T02:46:40;6.80;;;4.90;;
11691;SDS011;33659;42.672;23.354;2022-12-18T02:49:14;8.17;;;4.40;;
11691;SDS011;33659;42.672;23.354;2022-12-18T02:51:50;6.03;;;4.23;;
11691;SDS011;33659;42.672;23.354;2022-12-18T02:54:26;9.43;;;4.83;;
11691;SDS011;33659;42.672;23.354;2022-12-18T02:57:07;7.67;;;5.00;;
11691;SDS011;33659;42.672;23.354;2022-12-18T02:59:42;7.97;;;5.73;;
11691;SDS011;33659;42.672;23.354;2022-12-18T03:02:18;6.93;;;4.87;;
11691;SDS011;33659;42.672;23.354;2022-12-18T03:04:50;10.20;;;5.00;;
11691;SDS011;33659;42.672;23.354;2022-12-18T03:07:26;6.10;;;4.60;;
11691;SDS011;33659;42.672;23.354;2022-12-18T03:10:00;6.90;;;4.97;;
11691;SDS011;33659;42.672;23.354;2022-12-18T03:12:30;8.43;;;5.23;;
11691;SDS011;33659;42.672;23.354;2022-12-18T03:15:02;6.27;;;4.80;;
11691;SDS011;33659;42.672;23.354;2022-12-18T03:17:34;5.53;;;3.73;;
11691;SDS011;33659;42.672;23.354;2022-12-18T03:20:03;6.23;;;4.87;;
11691;SDS011;33659;42.672;23.354;2022-12-18T03:22:34;6.67;;;4.87;;
11691;SDS011;33659;42.672;23.354;2022-12-18T03:25:04;5.27;;;4.00;;
11691;SDS011;33659;42.672;23.354;2022-12-18T03:27:35;6.47;;;4.57;;
11691;SDS011;33659;42.672;23.354;2022-12-18T03:30:08;8.37;;;4.97;;
11691;SDS011;33659;42.672;23.354;2022-12-18T03:32:38;6.33;;;4.37;;
11691;SDS011;33659;42.672;23.354;2022-12-18T03:35:09;7.30;;;4.57;;
11691;SDS011;33659;42.672;23.354;2022-12-18T03:37:39;8.77;;;5.17;;
11691;SDS011;33659;42.672;23.354;2022-12-18T03:40:06;5.87;;;4.67;;
11691;SDS011;33659;42.672;23.354;2022-12-18T03:42:35;9.60;;;5.03;;
11691;SDS011;33659;42.672;23.354;2022-12-18T03:45:11;6.30;;;4.70;;
11691;SDS011;33659;42.672;23.354;2022-12-18T03:47:43;7.00;;;4.70;;
11691;SDS011;33659;42.672;23.354;2022-12-18T03:50:16;6.73;;;4.70;;
11691;SDS011;33659;42.672;23.354;2022-12-18T03:52:48;6.50;;;4.60;;
11691;SDS011;33659;42.672;23.354;2022-12-18T03:55:18;6.00;;;4.17;;
11691;SDS011;33659;42.672;23.354;2022-12-18T03:57:48;9.43;;;5.20;;
11691;SDS011;33659;42.672;23.354;2022-12-18T04:00:18;7.23;;;5.23;;
11691;SDS011;33659;42.672;23.354;2022-12-18T04:02:46;6.33;;;4.27;;
11691;SDS011;33659;42.672;23.354;2022-12-18T04:05:17;5.63;;;3.87;;
11691;SDS011;33659;42.672;23.354;2022-12-18T04:07:45;6.13;;;4.40;;
11691;SDS011;33659;42.672;23.354;2022-12-18T04:10:14;6.30;;;4.77;;
11691;SDS011;33659;42.672;23.354;2022-12-18T04:12:42;8.87;;;5.03;;
11691;SDS011;33659;42.672;23.354;2022-12-18T04:15:10;6.87;;;5.27;;
11691;SDS011;33659;42.672;23.354;2022-12-18T04:17:38;5.93;;;4.50;;
11691;SDS011;33659;42.672;23.354;2022-12-18T04:20:05;5.30;;;4.80;;
11691;SDS011;33659;42.672;23.354;2022-12-18T04:22:33;6.17;;;5.27;;
11691;SDS011;33659;42.672;23.354;2022-12-18T04:25:00;8.57;;;5.43;;
11691;SDS011;33659;42.672;23.354;2022-12-18T04:27:27;7.03;;;5.23;;
11691;SDS011;33659;42.672;23.354;2022-12-18T04:29:54;6.83;;;5.30;;
11691;SDS011;33659;42.672;23.354;2022-12-18T04:32:22;9.13;;;5.33;;
11691;SDS011;33659;42.672;23.354;2022-12-18T04:34:49;8.43;;;5.77;;
11691;SDS011;33659;42.672;23.354;2022-12-18T04:37:15;7.03;;;5.07;;
11691;SDS011;33659;42.672;23.354;2022-12-18T04:39:42;8.17;;;5.43;;
11691;SDS011;33659;42.672;23.354;2022-12-18T04:42:09;7.50;;;5.87;;
11691;SDS011;33659;42.672;23.354;2022-12-18T04:44:35;9.27;;;6.23;;
11691;SDS011;33659;42.672;23.354;2022-12-18T04:47:02;7.63;;;6.17;;
11691;SDS011;33659;42.672;23.354;2022-12-18T04:49:31;6.90;;;5.07;;
11691;SDS011;33659;42.672;23.354;2022-12-18T04:51:57;7.73;;;5.23;;
11691;SDS011;33659;42.672;23.354;2022-12-18T04:54:24;12.80;;;5.93;;
11691;SDS011;33659;42.672;23.354;2022-12-18T04:56:51;12.97;;;6.63;;
11691;SDS011;33659;42.672;23.354;2022-12-18T04:59:17;9.23;;;5.60;;
11691;SDS011;33659;42.672;23.354;2022-12-18T05:01:44;8.53;;;6.20;;
11691;SDS011;33659;42.672;23.354;2022-12-18T05:04:11;8.67;;;5.83;;
11691;SDS011;33659;42.672;23.354;2022-12-18T05:06:39;12.03;;;6.47;;
11691;SDS011;33659;42.672;23.354;2022-12-18T05:09:06;11.23;;;7.20;;
11691;SDS011;33659;42.672;23.354;2022-12-18T05:11:32;9.47;;;7.17;;
11691;SDS011;33659;42.672;23.354;2022-12-18T05:13:59;11.17;;;6.90;;
11691;SDS011;33659;42.672;23.354;2022-12-18T05:16:26;12.00;;;7.53;;
11691;SDS011;33659;42.672;23.354;2022-12-18T05:18:52;8.50;;;6.13;;
11691;SDS011;33659;42.672;23.354;2022-12-18T05:21:19;11.57;;;7.10;;
11691;SDS011;33659;42.672;23.354;2022-12-18T05:23:47;10.10;;;6.20;;
11691;SDS011;33659;42.672;23.354;2022-12-18T05:26:14;11.53;;;7.43;;
11691;SDS011;33659;42.672;23.354;2022-12-18T05:28:43;13.87;;;7.37;;
11691;SDS011;33659;42.672;23.354;2022-12-18T05:31:09;10.97;;;7.03;;
11691;SDS011;33659;42.672;23.354;2022-12-18T05:33:37;13.77;;;6.77;;
11691;SDS011;33659;42.672;23.354;2022-12-18T05:36:04;11.53;;;7.23;;
11691;SDS011;33659;42.672;23.354;2022-12-18T05:38:33;10.30;;;7.33;;
11691;SDS011;33659;42.672;23.354;2022-12-18T05:41:02;13.93;;;7.23;;
11691;SDS011;33659;42.672;23.354;2022-12-18T05:43:29;11.33;;;7.37;;
11691;SDS011;33659;42.672;23.354;2022-12-18T05:45:56;11.03;;;7.20;;
11691;SDS011;33659;42.672;23.354;2022-12-18T05:48:23;9.67;;;6.87;;
11691;SDS011;33659;42.672;23.354;2022-12-18T05:50:50;9.50;;;6.73;;
11691;SDS011;33659;42.672;23.354;2022-12-18T05:53:17;8.67;;;5.90;;
11691;SDS011;33659;42.672;23.354;2022-12-18T05:55:45;11.43;;;7.53;;
11691;SDS011;33659;42.672;23.354;2022-12-18T05:58:14;12.37;;;7.00;;
11691;SDS011;33659;42.672;23.354;2022-12-18T06:00:42;10.80;;;7.87;;
11691;SDS011;33659;42.672;23.354;2022-12-18T06:03:11;13.10;;;7.70;;
11691;SDS011;33659;42.672;23.354;2022-12-18T06:05:40;12.73;;;7.00;;
11691;SDS011;33659;42.672;23.354;2022-12-18T06:08:08;12.20;;;7.27;;
11691;SDS011;33659;42.672;23.354;2022-12-18T06:10:36;10.87;;;7.43;;
11691;SDS011;33659;42.672;23.354;2022-12-18T06:13:02;11.53;;;6.73;;
11691;SDS011;33659;42.672;23.354;2022-12-18T06:15:31;8.57;;;6.33;;
11691;SDS011;33659;42.672;23.354;2022-12-18T06:17:58;14.80;;;8.17;;
11691;SDS011;33659;42.672;23.354;2022-12-18T06:20:26;11.43;;;6.80;;
11691;SDS011;33659;42.672;23.354;2022-12-18T06:22:53;10.43;;;7.27;;
11691;SDS011;33659;42.672;23.354;2022-12-18T06:25:19;11.70;;;7.30;;
11691;SDS011;33659;42.672;23.354;2022-12-18T06:27:46;10.57;;;6.90;;
11691;SDS011;33659;42.672;23.354;2022-12-18T06:30:13;12.50;;;7.57;;
11691;SDS011;33659;42.672;23.354;2022-12-18T06:32:41;14.00;;;7.90;;
11691;SDS011;33659;42.672;23.354;2022-12-18T06:35:08;13.80;;;8.00;;
11691;SDS011;33659;42.672;23.354;2022-12-18T06:37:35;11.47;;;6.93;;
11691;SDS011;33659;42.672;23.354;2022-12-18T06:40:02;14.13;;;8.67;;
11691;SDS011;33659;42.672;23.354;2022-12-18T06:42:30;12.87;;;7.30;;
11691;SDS011;33659;42.672;23.354;2022-12-18T06:44:57;12.60;;;7.00;;
11691;SDS011;33659;42.672;23.354;2022-12-18T06:47:23;13.13;;;7.17;;
11691;SDS011;33659;42.672;23.354;2022-12-18T06:49:51;12.17;;;7.63;;
11691;SDS011;33659;42.672;23.354;2022-12-18T06:52:18;11.53;;;7.63;;
11691;SDS011;33659;42.672;23.354;2022-12-18T06:54:45;12.57;;;7.57;;
11691;SDS011;33659;42.672;23.354;2022-12-18T06:57:11;14.67;;;8.43;;
11691;SDS011;33659;42.672;23.354;2022-12-18T06:59:38;15.10;;;8.83;;
11691;SDS011;33659;42.672;23.354;2022-12-18T07:02:05;11.33;;;7.20;;
11691;SDS011;33659;42.672;23.354;2022-12-18T07:04:32;12.73;;;7.53;;
11691;SDS011;33659;42.672;23.354;2022-12-18T07:06:59;10.57;;;7.43;;
11691;SDS011;33659;42.672;23.354;2022-12-18T07:09:26;13.60;;;8.30;;
11691;SDS011;33659;42.672;23.354;2022-12-18T07:11:53;13.47;;;8.27;;
11691;SDS011;33659;42.672;23.354;2022-12-18T07:14:20;10.67;;;7.13;;
11691;SDS011;33659;42.672;23.354;2022-12-18T07:16:47;13.30;;;7.80;;
11691;SDS011;33659;42.672;23.354;2022-12-18T07:19:13;13.13;;;7.47;;
11691;SDS011;33659;42.672;23.354;2022-12-18T07:21:40;11.10;;;7.63;;
11691;SDS011;33659;42.672;23.354;2022-12-18T07:24:08;11.40;;;7.57;;
11691;SDS011;33659;42.672;23.354;2022-12-18T07:26:35;15.07;;;7.87;;
11691;SDS011;33659;42.672;23.354;2022-12-18T07:29:01;11.67;;;8.17;;
11691;SDS011;33659;42.672;23.354;2022-12-18T07:31:28;12.43;;;8.63;;
11691;SDS011;33659;42.672;23.354;2022-12-18T07:33:55;10.73;;;7.30;;
11691;SDS011;33659;42.672;23.354;2022-12-18T07:36:21;12.60;;;7.77;;
11691;SDS011;33659;42.672;23.354;2022-12-18T07:38:48;13.57;;;8.00;;
11691;SDS011;33659;42.672;23.354;2022-12-18T07:41:17;14.70;;;8.80;;
11691;SDS011;33659;42.672;23.354;2022-12-18T07:43:45;13.17;;;8.93;;
11691;SDS011;33659;42.672;23.354;2022-12-18T07:46:12;13.73;;;8.90;;
11691;SDS011;33659;42.672;23.354;2022-12-18T07:48:39;16.40;;;9.63;;
11691;SDS011;33659;42.672;23.354;2022-12-18T07:51:07;18.93;;;9.67;;
11691;SDS011;33659;42.672;23.354;2022-12-18T07:53:34;14.30;;;8.47;;
11691;SDS011;33659;42.672;23.354;2022-12-18T07:56:02;15.30;;;9.43;;
11691;SDS011;33659;42.672;23.354;2022-12-18T07:58:32;16.10;;;9.87;;
11691;SDS011;33659;42.672;23.354;2022-12-18T08:01:03;14.83;;;8.50;;
11691;SDS011;33659;42.672;23.354;2022-12-18T08:03:31;12.30;;;8.73;;
11691;SDS011;33659;42.672;23.354;2022-12-18T08:05:59;14.80;;;9.77;;
11691;SDS011;33659;42.672;23.354;2022-12-18T08:08:26;15.60;;;9.60;;
11691;SDS011;33659;42.672;23.354;2022-12-18T08:10:53;13.93;;;9.23;;
11691;SDS011;33659;42.672;23.354;2022-12-18T08:13:19;18.77;;;10.77;;
11691;SDS011;33659;42.672;23.354;2022-12-18T08:15:48;15.13;;;9.97;;
11691;SDS011;33659;42.672;23.354;2022-12-18T08:18:21;13.70;;;8.90;;
11691;SDS011;33659;42.672;23.354;2022-12-18T08:20:48;14.37;;;9.17;;
11691;SDS011;33659;42.672;23.354;2022-12-18T08:23:15;18.57;;;10.40;;
11691;SDS011;33659;42.672;23.354;2022-12-18T08:25:42;19.80;;;10.80;;
11691;SDS011;33659;42.672;23.354;2022-12-18T08:28:09;18.23;;;10.60;;
11691;SDS011;33659;42.672;23.354;2022-12-18T08:30:35;16.80;;;9.63;;
11691;SDS011;33659;42.672;23.354;2022-12-18T08:33:03;15.23;;;9.33;;
11691;SDS011;33659;42.672;23.354;2022-12-18T08:35:30;18.73;;;9.60;;
11691;SDS011;33659;42.672;23.354;2022-12-18T08:38:01;18.50;;;10.50;;
11691;SDS011;33659;42.672;23.354;2022-12-18T08:40:28;14.50;;;8.63;;
11691;SDS011;33659;42.672;23.354;2022-12-18T08:42:54;15.87;;;9.73;;
11691;SDS011;33659;42.672;23.354;2022-12-18T08:45:38;16.63;;;10.10;;
11691;SDS011;33659;42.672;23.354;2022-12-18T08:48:06;16.23;;;10.40;;
11691;SDS011;33659;42.672;23.354;2022-12-18T08:50:33;20.40;;;10.73;;
11691;SDS011;33659;42.672;23.354;2022-12-18T08:53:00;16.40;;;10.70;;
11691;SDS011;33659;42.672;23.354;2022-12-18T08:55:27;19.60;;;10.30;;
11691;SDS011;33659;42.672;23.354;2022-12-18T08:57:54;18.63;;;10.20;;
11691;SDS011;33659;42.672;23.354;2022-12-18T09:00:20;14.43;;;9.07;;
11691;SDS011;33659;42.672;23.354;2022-12-18T09:02:47;14.07;;;8.80;;
11691;SDS011;33659;42.672;23.354;2022-12-18T09:05:15;15.87;;;9.60;;
11691;SDS011;33659;42.672;23.354;2022-12-18T09:07:42;14.07;;;9.03;;
11691;SDS011;33659;42.672;23.354;2022-12-18T09:10:09;15.60;;;9.40;;
11691;SDS011;33659;42.672;23.354;2022-12-18T09:12:35;12.07;;;7.60;;
11691;SDS011;33659;42.672;23.354;2022-12-18T09:15:02;13.50;;;8.50;;
11691;SDS011;33659;42.672;23.354;2022-12-18T09:17:29;13.23;;;8.10;;
11691;SDS011;33659;42.672;23.354;2022-12-18T09:19:56;13.77;;;8.17;;
11691;SDS011;33659;42.672;23.354;2022-12-18T09:22:24;12.60;;;8.70;;
11691;SDS011;33659;42.672;23.354;2022-12-18T09:24:51;16.57;;;9.60;;
11691;SDS011;33659;42.672;23.354;2022-12-18T09:27:17;16.07;;;9.13;;
11691;SDS011;33659;42.672;23.354;2022-12-18T09:29:44;13.27;;;7.83;;
11691;SDS011;33659;42.672;23.354;2022-12-18T09:32:10;12.70;;;8.50;;
11691;SDS011;33659;42.672;23.354;2022-12-18T09:34:37;18.10;;;8.87;;
11691;SDS011;33659;42.672;23.354;2022-12-18T09:37:04;13.57;;;8.57;;
11691;SDS011;33659;42.672;23.354;2022-12-18T09:39:32;16.03;;;9.27;;
11691;SDS011;33659;42.672;23.354;2022-12-18T09:41:58;14.90;;;9.57;;
11691;SDS011;33659;42.672;23.354;2022-12-18T09:44:26;12.00;;;7.47;;
11691;SDS011;33659;42.672;23.354;2022-12-18T09:47:08;15.17;;;8.77;;
11691;SDS011;33659;42.672;23.354;2022-12-18T09:49:40;14.43;;;9.37;;
11691;SDS011;33659;42.672;23.354;2022-12-18T09:52:09;15.17;;;9.07;;
11691;SDS011;33659;42.672;23.354;2022-12-18T09:54:42;15.03;;;8.17;;
11691;SDS011;33659;42.672;23.354;2022-12-18T09:57:13;14.80;;;8.23;;
11691;SDS011;33659;42.672;23.354;2022-12-18T09:59:41;16.87;;;8.77;;
11691;SDS011;33659;42.672;23.354;2022-12-18T10:02:12;13.57;;;8.80;;
11691;SDS011;33659;42.672;23.354;2022-12-18T10:04:41;15.57;;;8.67;;
11691;SDS011;33659;42.672;23.354;2022-12-18T10:07:09;13.50;;;8.77;;
11691;SDS011;33659;42.672;23.354;2022-12-18T10:09:44;14.63;;;8.70;;
11691;SDS011;33659;42.672;23.354;2022-12-18T10:12:19;17.07;;;9.60;;
11691;SDS011;33659;42.672;23.354;2022-12-18T10:14:50;16.57;;;9.03;;
11691;SDS011;33659;42.672;23.354;2022-12-18T10:17:24;16.40;;;8.87;;
11691;SDS011;33659;42.672;23.354;2022-12-18T10:19:57;9.80;;;6.57;;
11691;SDS011;33659;42.672;23.354;2022-12-18T10:25:20;13.80;;;8.70;;
11691;SDS011;33659;42.672;23.354;2022-12-18T10:27:51;15.53;;;9.27;;
11691;SDS011;33659;42.672;23.354;2022-12-18T10:30:20;12.50;;;8.47;;
11691;SDS011;33659;42.672;23.354;2022-12-18T10:32:48;15.33;;;9.67;;
11691;SDS011;33659;42.672;23.354;2022-12-18T10:35:17;13.77;;;8.23;;
11691;SDS011;33659;42.672;23.354;2022-12-18T10:38:05;17.67;;;9.80;;
11691;SDS011;33659;42.672;23.354;2022-12-18T10:40:51;17.30;;;9.90;;
11691;SDS011;33659;42.672;23.354;2022-12-18T10:43:20;14.90;;;8.90;;
11691;SDS011;33659;42.672;23.354;2022-12-18T10:45:59;13.03;;;9.00;;
11691;SDS011;33659;42.672;23.354;2022-12-18T10:48:39;17.23;;;9.33;;
11691;SDS011;33659;42.672;23.354;2022-12-18T10:51:19;16.33;;;9.40;;
11691;SDS011;33659;42.672;23.354;2022-12-18T10:53:51;13.87;;;8.67;;
11691;SDS011;33659;42.672;23.354;2022-12-18T10:56:21;12.90;;;9.10;;
11691;SDS011;33659;42.672;23.354;2022-12-18T10:58:55;14.83;;;9.13;;
11691;SDS011;33659;42.672;23.354;2022-12-18T11:01:23;14.10;;;8.90;;
11691;SDS011;33659;42.672;23.354;2022-12-18T11:03:58;20.00;;;10.33;;
11691;SDS011;33659;42.672;23.354;2022-12-18T11:06:26;15.30;;;9.00;;
11691;SDS011;33659;42.672;23.354;2022-12-18T11:08:57;13.77;;;8.83;;
11691;SDS011;33659;42.672;23.354;2022-12-18T11:11:26;14.07;;;8.50;;
11691;SDS011;33659;42.672;23.354;2022-12-18T11:14:01;12.63;;;8.50;;
11691;SDS011;33659;42.672;23.354;2022-12-18T11:16:30;11.40;;;7.77;;
11691;SDS011;33659;42.672;23.354;2022-12-18T11:19:15;13.73;;;8.90;;
11691;SDS011;33659;42.672;23.354;2022-12-18T11:21:49;13.83;;;8.40;;
11691;SDS011;33659;42.672;23.354;2022-12-18T11:24:20;16.27;;;10.23;;
11691;SDS011;33659;42.672;23.354;2022-12-18T11:26:54;14.53;;;8.53;;
11691;SDS011;33659;42.672;23.354;2022-12-18T11:29:23;15.13;;;9.73;;
11691;SDS011;33659;42.672;23.354;2022-12-18T11:31:55;15.00;;;8.90;;
11691;SDS011;33659;42.672;23.354;2022-12-18T11:34:48;13.43;;;9.00;;
11691;SDS011;33659;42.672;23.354;2022-12-18T11:37:19;14.87;;;8.00;;
11691;SDS011;33659;42.672;23.354;2022-12-18T11:39:46;16.80;;;8.43;;
11691;SDS011;33659;42.672;23.354;2022-12-18T11:42:22;14.57;;;8.57;;
11691;SDS011;33659;42.672;23.354;2022-12-18T11:44:55;15.63;;;9.10;;
11691;SDS011;33659;42.672;23.354;2022-12-18T11:47:26;14.10;;;8.90;;
11691;SDS011;33659;42.672;23.354;2022-12-18T11:50:00;15.77;;;9.40;;
11691;SDS011;33659;42.672;23.354;2022-12-18T11:52:30;15.23;;;9.20;;
11691;SDS011;33659;42.672;23.354;2022-12-18T11:55:05;13.50;;;8.57;;
11691;SDS011;33659;42.672;23.354;2022-12-18T11:57:39;14.97;;;8.60;;
11691;SDS011;33659;42.672;23.354;2022-12-18T12:00:18;14.70;;;8.83;;
11691;SDS011;33659;42.672;23.354;2022-12-18T12:05:46;15.87;;;8.93;;
11691;SDS011;33659;42.672;23.354;2022-12-18T12:08:37;13.90;;;8.10;;
11691;SDS011;33659;42.672;23.354;2022-12-18T12:11:17;13.90;;;9.07;;
11691;SDS011;33659;42.672;23.354;2022-12-18T12:13:57;15.97;;;9.47;;
11691;SDS011;33659;42.672;23.354;2022-12-18T12:16:35;14.30;;;9.40;;
11691;SDS011;33659;42.672;23.354;2022-12-18T12:19:15;18.20;;;9.43;;
11691;SDS011;33659;42.672;23.354;2022-12-18T12:21:57;14.87;;;9.07;;
11691;SDS011;33659;42.672;23.354;2022-12-18T12:24:33;12.80;;;8.47;;
11691;SDS011;33659;42.672;23.354;2022-12-18T12:27:07;14.73;;;8.50;;
11691;SDS011;33659;42.672;23.354;2022-12-18T12:29:48;13.80;;;8.97;;
11691;SDS011;33659;42.672;23.354;2022-12-18T12:32:28;17.40;;;8.43;;
11691;SDS011;33659;42.672;23.354;2022-12-18T12:35:11;15.73;;;9.03;;
11691;SDS011;33659;42.672;23.354;2022-12-18T12:37:51;15.40;;;8.10;;
11691;SDS011;33659;42.672;23.354;2022-12-18T12:40:27;13.20;;;7.83;;
11691;SDS011;33659;42.672;23.354;2022-12-18T12:42:59;13.13;;;8.60;;
11691;SDS011;33659;42.672;23.354;2022-12-18T12:45:41;16.07;;;9.50;;
11691;SDS011;33659;42.672;23.354;2022-12-18T12:48:16;13.30;;;8.70;;
11691;SDS011;33659;42.672;23.354;2022-12-18T12:50:46;16.20;;;9.37;;
11691;SDS011;33659;42.672;23.354;2022-12-18T12:53:17;17.60;;;9.80;;
11691;SDS011;33659;42.672;23.354;2022-12-18T12:55:50;17.50;;;9.40;;
11691;SDS011;33659;42.672;23.354;2022-12-18T12:58:19;16.60;;;10.07;;
11691;SDS011;33659;42.672;23.354;2022-12-18T13:00:56;17.97;;;9.37;;
11691;SDS011;33659;42.672;23.354;2022-12-18T13:03:32;17.27;;;10.73;;
11691;SDS011;33659;42.672;23.354;2022-12-18T13:06:08;16.07;;;9.50;;
11691;SDS011;33659;42.672;23.354;2022-12-18T13:08:52;14.10;;;9.00;;
11691;SDS011;33659;42.672;23.354;2022-12-18T13:11:31;15.53;;;10.03;;
11691;SDS011;33659;42.672;23.354;2022-12-18T13:14:20;17.70;;;10.33;;
11691;SDS011;33659;42.672;23.354;2022-12-18T13:16:50;16.27;;;9.10;;
11691;SDS011;33659;42.672;23.354;2022-12-18T13:19:23;14.77;;;9.20;;
11691;SDS011;33659;42.672;23.354;2022-12-18T13:21:53;15.97;;;10.03;;
11691;SDS011;33659;42.672;23.354;2022-12-18T13:24:23;18.23;;;8.97;;
11691;SDS011;33659;42.672;23.354;2022-12-18T13:26:52;15.93;;;9.00;;
11691;SDS011;33659;42.672;23.354;2022-12-18T13:32:22;18.00;;;9.37;;
11691;SDS011;33659;42.672;23.354;2022-12-18T13:35:03;13.93;;;8.80;;
11691;SDS011;33659;42.672;23.354;2022-12-18T13:38:16;16.60;;;9.17;;
11691;SDS011;33659;42.672;23.354;2022-12-18T13:40:53;17.97;;;10.37;;
11691;SDS011;33659;42.672;23.354;2022-12-18T13:43:23;17.67;;;9.90;;
11691;SDS011;33659;42.672;23.354;2022-12-18T13:46:04;16.17;;;9.97;;
11691;SDS011;33659;42.672;23.354;2022-12-18T13:48:48;17.93;;;9.50;;
11691;SDS011;33659;42.672;23.354;2022-12-18T13:51:21;17.10;;;8.77;;
11691;SDS011;33659;42.672;23.354;2022-12-18T13:53:49;16.27;;;9.73;;
11691;SDS011;33659;42.672;23.354;2022-12-18T13:56:18;17.10;;;10.50;;
11691;SDS011;33659;42.672;23.354;2022-12-18T13:59:03;17.37;;;9.43;;
11691;SDS011;33659;42.672;23.354;2022-12-18T14:01:35;14.80;;;8.87;;
11691;SDS011;33659;42.672;23.354;2022-12-18T14:04:10;17.53;;;9.80;;
11691;SDS011;33659;42.672;23.354;2022-12-18T14:06:38;13.10;;;8.97;;
11691;SDS011;33659;42.672;23.354;2022-12-18T14:09:09;16.80;;;9.67;;
11691;SDS011;33659;42.672;23.354;2022-12-18T14:11:40;15.17;;;9.20;;
11691;SDS011;33659;42.672;23.354;2022-12-18T14:14:13;14.17;;;8.47;;
11691;SDS011;33659;42.672;23.354;2022-12-18T14:16:40;16.97;;;9.13;;
11691;SDS011;33659;42.672;23.354;2022-12-18T14:19:08;15.27;;;8.80;;
11691;SDS011;33659;42.672;23.354;2022-12-18T14:21:40;17.17;;;9.27;;
11691;SDS011;33659;42.672;23.354;2022-12-18T14:24:13;18.87;;;9.47;;
11691;SDS011;33659;42.672;23.354;2022-12-18T14:26:41;15.63;;;8.87;;
11691;SDS011;33659;42.672;23.354;2022-12-18T14:29:19;17.00;;;9.27;;
11691;SDS011;33659;42.672;23.354;2022-12-18T14:32:05;14.97;;;9.30;;
11691;SDS011;33659;42.672;23.354;2022-12-18T14:34:43;16.40;;;9.30;;
11691;SDS011;33659;42.672;23.354;2022-12-18T14:37:10;16.40;;;9.80;;
11691;SDS011;33659;42.672;23.354;2022-12-18T14:39:39;13.10;;;8.60;;
11691;SDS011;33659;42.672;23.354;2022-12-18T14:42:09;13.97;;;8.93;;
11691;SDS011;33659;42.672;23.354;2022-12-18T14:44:36;17.20;;;9.40;;
11691;SDS011;33659;42.672;23.354;2022-12-18T14:47:03;15.60;;;8.73;;
11691;SDS011;33659;42.672;23.354;2022-12-18T14:49:31;13.77;;;8.87;;
11691;SDS011;33659;42.672;23.354;2022-12-18T14:52:00;17.60;;;9.70;;
11691;SDS011;33659;42.672;23.354;2022-12-18T14:54:29;14.40;;;8.87;;
11691;SDS011;33659;42.672;23.354;2022-12-18T14:56:58;16.07;;;8.80;;